| time (UTC) | temp C | wind direction | speed KPH | gust KPH | rain 1hr cm | rain 24hr cm | rain mn cm | humidity % | barometer mb |
| 20260906224754 | 37 | 170 | 6.4 | 12.9 | 0.00 | 0.00 | 0.00 | 43 | 1059.7 |
| 20260906224250 | 38 | 169 | 4.8 | 9.7 | 0.00 | 0.00 | 0.00 | 40 | 1059.8 |
| 20260906223746 | 38 | 261 | 1.6 | 6.4 | 0.00 | 0.00 | 0.00 | 40 | 1059.8 |
| 20260906223242 | 38 | 231 | 1.6 | 3.2 | 0.00 | 0.00 | 0.00 | 41 | 1059.8 |
| 20260906222740 | 38 | 214 | 6.4 | 9.7 | 0.00 | 0.00 | 0.00 | 41 | 1059.9 |
| 20260906222239 | 38 | 240 | 0.0 | 9.7 | 0.00 | 0.00 | 0.00 | 42 | 1059.9 |
| 20260906221738 | 37 | 189 | 1.6 | 9.7 | 0.00 | 0.00 | 0.00 | 43 | 1059.8 |
| 20260906221237 | 37 | 102 | 3.2 | 6.4 | 0.00 | 0.00 | 0.00 | 42 | 1060.2 |
| 20260906220733 | 37 | 195 | 1.6 | 9.7 | 0.00 | 0.00 | 0.00 | 44 | 1060.0 |
| 20260906220228 | 37 | 127 | 3.2 | 11.3 | 0.00 | 0.00 | 0.00 | 43 | 1060.2 |
| 20260906215727 | 37 | 218 | 0.0 | 4.8 | 0.00 | 0.00 | 0.00 | 42 | 1060.0 |
| 20260906215227 | 37 | 121 | 4.8 | 16.1 | 0.00 | 0.00 | 0.00 | 42 | 1060.0 |
| 20260906214725 | 37 | 194 | 1.6 | 9.7 | 0.00 | 0.00 | 0.00 | 42 | 1059.9 |
| 20260906214221 | 37 | 132 | 3.2 | 9.7 | 0.00 | 0.00 | 0.00 | 42 | 1059.9 |
| 20260906213720 | 38 | 60 | 6.4 | 17.7 | 0.00 | 0.00 | 0.00 | 41 | 1060.0 |
| 20260906213219 | 37 | 205 | 3.2 | 4.8 | 0.00 | 0.00 | 0.00 | 41 | 1060.3 |
| 20260906212717 | 38 | 188 | 1.6 | 3.2 | 0.00 | 0.00 | 0.00 | 41 | 1060.4 |
| 20260906212213 | 37 | 185 | 1.6 | 4.8 | 0.00 | 0.00 | 0.00 | 42 | 1060.4 |
| 20260906211713 | 35 | 189 | 1.6 | 3.2 | 0.00 | 0.00 | 0.00 | 44 | 1060.5 |
| 20260906211208 | 35 | 138 | 1.6 | 14.5 | 0.00 | 0.00 | 0.00 | 47 | 1060.5 |
| 20260906210703 | 35 | 120 | 8.0 | 11.3 | 0.00 | 0.00 | 0.00 | 46 | 1060.7 |
| 20260906210203 | 35 | 132 | 3.2 | 14.5 | 0.00 | 0.00 | 0.00 | 45 | 1060.7 |
| 20260906205659 | 36 | 145 | 8.0 | 12.9 | 0.00 | 0.00 | 0.00 | 43 | 1060.8 |
| 20260906205155 | 37 | 93 | 1.6 | 12.9 | 0.00 | 0.00 | 0.00 | 43 | 1060.8 |
| 20260906204655 | 38 | 137 | 4.8 | 11.3 | 0.00 | 0.00 | 0.00 | 41 | 1060.8 |
| 20260906204154 | 38 | 239 | 1.6 | 4.8 | 0.00 | 0.00 | 0.00 | 40 | 1060.6 |
| 20260906203654 | 38 | 106 | 4.8 | 6.4 | 0.00 | 0.00 | 0.00 | 41 | 1060.9 |
| 20260906203149 | 38 | 154 | 1.6 | 4.8 | 0.00 | 0.00 | 0.00 | 39 | 1060.8 |
| 20260906202646 | 38 | 119 | 8.0 | 11.3 | 0.00 | 0.00 | 0.00 | 39 | 1060.7 |
| 20260906202145 | 38 | 172 | 3.2 | 6.4 | 0.00 | 0.00 | 0.00 | 39 | 1061.0 |
| 20260906201641 | 38 | 266 | 1.6 | 6.4 | 0.00 | 0.00 | 0.00 | 39 | 1061.1 |
| 20260906201139 | 37 | 207 | 1.6 | 4.8 | 0.00 | 0.00 | 0.00 | 40 | 1061.1 |
| 20260906200636 | 36 | 137 | 1.6 | 4.8 | 0.00 | 0.00 | 0.00 | 42 | 1061.0 |
| 20260906200131 | 36 | 31 | 8.0 | 9.7 | 0.00 | 0.00 | 0.00 | 43 | 1061.3 |
| 20260906195627 | 36 | 194 | 3.2 | 9.7 | 0.00 | 0.00 | 0.00 | 42 | 1061.2 |
| 20260906195123 | 36 | 35 | 1.6 | 12.9 | 0.00 | 0.00 | 0.00 | 43 | 1061.4 |
| 20260906194619 | 36 | 54 | 8.0 | 14.5 | 0.00 | 0.00 | 0.00 | 43 | 1061.3 |
| 20260906194115 | 37 | 141 | 8.0 | 17.7 | 0.00 | 0.00 | 0.00 | 43 | 1061.4 |
| 20260906193615 | 37 | 89 | 9.7 | 14.5 | 0.00 | 0.00 | 0.00 | 42 | 1061.5 |
| 20260906193110 | 36 | 193 | 1.6 | 6.4 | 0.00 | 0.00 | 0.00 | 44 | 1061.5 |
| 20260906192605 | 35 | 97 | 1.6 | 6.4 | 0.00 | 0.00 | 0.00 | 45 | 1061.6 |
| 20260906192104 | 37 | 108 | 6.4 | 17.7 | 0.00 | 0.00 | 0.00 | 43 | 1061.6 |
| 20260906191600 | 37 | 229 | 0.0 | 6.4 | 0.00 | 0.00 | 0.00 | 41 | 1061.7 |
| 20260906191059 | 36 | 223 | 3.2 | 4.8 | 0.00 | 0.00 | 0.00 | 42 | 1061.7 |
| 20260906190558 | 36 | 30 | 1.6 | 9.7 | 0.00 | 0.00 | 0.00 | 44 | 1061.8 |
| 20260906190053 | 36 | 81 | 6.4 | 11.3 | 0.00 | 0.00 | 0.00 | 44 | 1061.7 |
| 20260906185552 | 36 | 88 | 6.4 | 12.9 | 0.00 | 0.00 | 0.00 | 44 | 1061.8 |
| 20260906185051 | 36 | 83 | 3.2 | 4.8 | 0.00 | 0.00 | 0.00 | 44 | 1062.0 |
| 20260906184546 | 36 | 84 | 6.4 | 12.9 | 0.00 | 0.00 | 0.00 | 44 | 1061.9 |
| 20260906184042 | 36 | 65 | 9.7 | 11.3 | 0.00 | 0.00 | 0.00 | 44 | 1062.0 |
| 20260906183538 | 36 | 143 | 0.0 | 4.8 | 0.00 | 0.00 | 0.00 | 43 | 1062.1 |
| 20260906183033 | 35 | 128 | 3.2 | 9.7 | 0.00 | 0.00 | 0.00 | 45 | 1062.2 |
| 20260906182528 | 35 | 142 | 4.8 | 9.7 | 0.00 | 0.00 | 0.00 | 45 | 1062.3 |
| 20260906182024 | 33 | 172 | 0.0 | 1.6 | 0.00 | 0.00 | 0.00 | 48 | 1062.5 |
| 20260906181520 | 33 | 190 | 1.6 | 1.6 | 0.00 | 0.00 | 0.00 | 49 | 1062.3 |
| 20260906181015 | 35 | 78 | 3.2 | 4.8 | 0.00 | 0.00 | 0.00 | 47 | 1062.6 |
| 20260906180510 | 35 | 181 | 0.0 | 4.8 | 0.00 | 0.00 | 0.00 | 47 | 1062.8 |
| 20260906180009 | 35 | 156 | 4.8 | 9.7 | 0.00 | 0.00 | 0.00 | 46 | 1062.6 |
| 20260906175503 | 34 | 97 | 3.2 | 11.3 | 0.00 | 0.00 | 0.00 | 48 | 1062.8 |
| 20260906175003 | 34 | 62 | 1.6 | 11.3 | 0.00 | 0.00 | 0.00 | 49 | 1063.0 |
| 20260906174501 | 33 | 178 | 4.8 | 6.4 | 0.00 | 0.00 | 0.00 | 50 | 1063.2 |
| 20260906173956 | 33 | 65 | 4.8 | 9.7 | 0.00 | 0.00 | 0.00 | 50 | 1063.2 |
| 20260906173452 | 35 | 90 | 8.0 | 14.5 | 0.00 | 0.00 | 0.00 | 47 | 1063.2 |
| 20260906172951 | 35 | 30 | 8.0 | 12.9 | 0.00 | 0.00 | 0.00 | 46 | 1063.3 |
| 20260906172448 | 35 | 59 | 1.6 | 4.8 | 0.00 | 0.00 | 0.00 | 47 | 1063.4 |
| 20260906171943 | 33 | 178 | 0.0 | 1.6 | 0.00 | 0.00 | 0.00 | 49 | 1063.4 |
| 20260906171443 | 34 | 114 | 1.6 | 9.7 | 0.00 | 0.00 | 0.00 | 48 | 1063.5 |
| 20260906170938 | 36 | 46 | 3.2 | 6.4 | 0.00 | 0.00 | 0.00 | 45 | 1063.6 |
| 20260906170435 | 36 | 169 | 3.2 | 14.5 | 0.00 | 0.00 | 0.00 | 44 | 1063.3 |
| 20260906165931 | 35 | 155 | 4.8 | 6.4 | 0.00 | 0.00 | 0.00 | 45 | 1063.5 |
| 20260906165430 | 35 | 119 | 4.8 | 9.7 | 0.00 | 0.00 | 0.00 | 46 | 1063.6 |
| 20260906164926 | 35 | 121 | 6.4 | 11.3 | 0.00 | 0.00 | 0.00 | 47 | 1063.7 |
| 20260906164424 | 34 | 200 | 1.6 | 11.3 | 0.00 | 0.00 | 0.00 | 48 | 1063.7 |
| 20260906163921 | 35 | 59 | 8.0 | 12.9 | 0.00 | 0.00 | 0.00 | 48 | 1063.7 |
| 20260906163416 | 35 | 279 | 3.2 | 9.7 | 0.00 | 0.00 | 0.00 | 49 | 1063.8 |
| 20260906162915 | 34 | 57 | 4.8 | 9.7 | 0.00 | 0.00 | 0.00 | 49 | 1063.7 |
| 20260906162413 | 34 | 329 | 1.6 | 6.4 | 0.00 | 0.00 | 0.00 | 49 | 1063.7 |
| 20260906161908 | 33 | 96 | 3.2 | 3.2 | 0.00 | 0.00 | 0.00 | 51 | 1063.8 |
| 20260906161408 | 33 | 336 | 6.4 | 9.7 | 0.00 | 0.00 | 0.00 | 51 | 1063.8 |
| 20260906160907 | 33 | 241 | 3.2 | 4.8 | 0.00 | 0.00 | 0.00 | 51 | 1063.6 |
| 20260906160401 | 33 | 220 | 3.2 | 6.4 | 0.00 | 0.00 | 0.00 | 51 | 1063.8 |
| 20260906155858 | 34 | 37 | 1.6 | 4.8 | 0.00 | 0.00 | 0.00 | 50 | 1063.7 |
| 20260906155352 | 33 | 128 | 1.6 | 3.2 | 0.00 | 0.00 | 0.00 | 51 | 1063.8 |
| 20260906154849 | 32 | 169 | 1.6 | 1.6 | 0.00 | 0.00 | 0.00 | 54 | 1063.8 |
| 20260906154343 | 32 | 307 | 4.8 | 4.8 | 0.00 | 0.00 | 0.00 | 55 | 1063.6 |
| 20260906153842 | 32 | 271 | 1.6 | 9.7 | 0.00 | 0.00 | 0.00 | 57 | 1063.7 |
| 20260906153341 | 32 | 209 | 3.2 | 6.4 | 0.00 | 0.00 | 0.00 | 57 | 1063.7 |
| 20260906152837 | 31 | 251 | 0.0 | 3.2 | 0.00 | 0.00 | 0.00 | 57 | 1063.6 |
| 20260906152332 | 31 | 226 | 3.2 | 6.4 | 0.00 | 0.00 | 0.00 | 58 | 1063.7 |
| 20260906151831 | 31 | 279 | 4.8 | 9.7 | 0.00 | 0.00 | 0.00 | 58 | 1063.6 |
| 20260906151326 | 31 | 262 | 1.6 | 9.7 | 0.00 | 0.00 | 0.00 | 58 | 1063.7 |
| 20260906150822 | 31 | 271 | 4.8 | 6.4 | 0.00 | 0.00 | 0.00 | 58 | 1063.6 |
| 20260906150318 | 31 | 206 | 1.6 | 3.2 | 0.00 | 0.00 | 0.00 | 58 | 1063.8 |
| 20260906145817 | 31 | 340 | 3.2 | 4.8 | 0.00 | 0.00 | 0.00 | 58 | 1063.8 |
| 20260906145315 | 30 | 263 | 4.8 | 6.4 | 0.00 | 0.00 | 0.00 | 60 | 1063.7 |
| 20260906144811 | 30 | 229 | 6.4 | 6.4 | 0.00 | 0.00 | 0.00 | 61 | 1063.6 |
| 20260906144306 | 30 | 265 | 4.8 | 6.4 | 0.00 | 0.00 | 0.00 | 61 | 1063.8 |
| 20260906143805 | 30 | 223 | 6.4 | 6.4 | 0.00 | 0.00 | 0.00 | 61 | 1063.9 |
| 20260906143302 | 30 | 308 | 1.6 | 4.8 | 0.00 | 0.00 | 0.00 | 62 | 1063.8 |
| 20260906142802 | 30 | 208 | 3.2 | 4.8 | 0.00 | 0.00 | 0.00 | 61 | 1063.7 |
| 20260906142257 | 30 | 209 | 1.6 | 4.8 | 0.00 | 0.00 | 0.00 | 61 | 1063.6 |
| 20260906141756 | 30 | 222 | 1.6 | 6.4 | 0.00 | 0.00 | 0.00 | 62 | 1063.5 |
| 20260906141251 | 30 | 213 | 3.2 | 4.8 | 0.00 | 0.00 | 0.00 | 62 | 1063.6 |
| 20260906140750 | 30 | 100 | 0.0 | 1.6 | 0.00 | 0.00 | 0.00 | 62 | 1063.4 |
| 20260906140245 | 30 | 190 | 0.0 | 1.6 | 0.00 | 0.00 | 0.00 | 62 | 1063.6 |
| 20260906135742 | 30 | 171 | 0.0 | 4.8 | 0.00 | 0.00 | 0.00 | 63 | 1063.4 |
| 20260906135238 | 30 | 181 | 0.0 | 0.0 | 0.00 | 0.00 | 0.00 | 63 | 1063.4 |
| 20260906134733 | 29 | 153 | 0.0 | 1.6 | 0.00 | 0.00 | 0.00 | 64 | 1063.5 |
| 20260906134228 | 28 | 160 | 0.0 | 0.0 | 0.00 | 0.00 | 0.00 | 66 | 1063.7 |
| 20260906133724 | 28 | 165 | 1.6 | 3.2 | 0.00 | 0.00 | 0.00 | 67 | 1063.3 |
| 20260906133219 | 28 | 178 | 1.6 | 1.6 | 0.00 | 0.00 | 0.00 | 68 | 1063.5 |
| 20260906132714 | 27 | 154 | 0.0 | 0.0 | 0.00 | 0.00 | 0.00 | 70 | 1063.5 |
| 20260906132210 | 26 | 144 | 0.0 | 0.0 | 0.00 | 0.00 | 0.00 | 74 | 1063.4 |
| 20260906131705 | 26 | 121 | 0.0 | 0.0 | 0.00 | 0.00 | 0.00 | 75 | 1063.5 |
| 20260906131200 | 25 | 75 | 1.6 | 1.6 | 0.00 | 0.00 | 0.00 | 77 | 1063.4 |
| 20260906130655 | 25 | 144 | 0.0 | 1.6 | 0.00 | 0.00 | 0.00 | 78 | 1063.2 |
| 20260906130151 | 25 | 97 | 0.0 | 0.0 | 0.00 | 0.00 | 0.00 | 78 | 1063.2 |
| 20260906125648 | 23 | 156 | 0.0 | 0.0 | 0.00 | 0.00 | 0.00 | 82 | 1063.2 |
| 20260906125147 | 23 | 159 | 0.0 | 0.0 | 0.00 | 0.00 | 0.00 | 84 | 1063.2 |
| 20260906124643 | 22 | 159 | 0.0 | 0.0 | 0.00 | 0.00 | 0.00 | 87 | 1063.0 |
| 20260906124138 | 22 | 137 | 0.0 | 0.0 | 0.00 | 0.00 | 0.00 | 88 | 1062.8 |
| 20260906123637 | 21 | 135 | 0.0 | 0.0 | 0.00 | 0.00 | 0.00 | 89 | 1062.8 |
| 20260906123132 | 21 | 129 | 0.0 | 0.0 | 0.00 | 0.00 | 0.00 | 89 | 1062.8 |
| 20260906122632 | 21 | 123 | 0.0 | 0.0 | 0.00 | 0.00 | 0.00 | 89 | 1062.8 |
| 20260906122127 | 21 | 91 | 0.0 | 0.0 | 0.00 | 0.00 | 0.00 | 89 | 1062.7 |
| 20260906121623 | 21 | 117 | 0.0 | 0.0 | 0.00 | 0.00 | 0.00 | 89 | 1062.7 |
| 20260906121120 | 21 | 101 | 0.0 | 1.6 | 0.00 | 0.00 | 0.00 | 89 | 1062.7 |
| 20260906120615 | 21 | 128 | 0.0 | 0.0 | 0.00 | 0.00 | 0.00 | 88 | 1062.6 |
| 20260906120113 | 21 | 128 | 0.0 | 1.6 | 0.00 | 0.00 | 0.00 | 88 | 1062.5 |
| 20260906115612 | 21 | 115 | 0.0 | 0.0 | 0.00 | 0.00 | 0.00 | 89 | 1062.3 |
| 20260906115108 | 21 | 129 | 0.0 | 0.0 | 0.00 | 0.00 | 0.00 | 88 | 1062.5 |
| 20260906114607 | 21 | 126 | 0.0 | 0.0 | 0.00 | 0.00 | 0.00 | 88 | 1062.3 |
| 20260906114103 | 21 | 132 | 0.0 | 0.0 | 0.00 | 0.00 | 0.00 | 88 | 1062.2 |
| 20260906113602 | 21 | 131 | 0.0 | 0.0 | 0.00 | 0.00 | 0.00 | 88 | 1062.4 |
| 20260906113057 | 22 | 132 | 0.0 | 0.0 | 0.00 | 0.00 | 0.00 | 88 | 1062.3 |
| 20260906112557 | 22 | 132 | 0.0 | 0.0 | 0.00 | 0.00 | 0.00 | 88 | 1062.1 |
| 20260906112054 | 22 | 132 | 0.0 | 0.0 | 0.00 | 0.00 | 0.00 | 88 | 1062.1 |
| 20260906111553 | 22 | 104 | 0.0 | 0.0 | 0.00 | 0.00 | 0.00 | 88 | 1062.0 |
| 20260906111048 | 22 | 156 | 0.0 | 0.0 | 0.00 | 0.00 | 0.00 | 89 | 1061.9 |
| 20260906110548 | 22 | 156 | 0.0 | 0.0 | 0.00 | 0.00 | 0.00 | 89 | 1062.0 |
| 20260906110048 | 22 | 184 | 0.0 | 0.0 | 0.00 | 0.00 | 0.00 | 88 | 1062.1 |
| 20260906105543 | 22 | 171 | 0.0 | 0.0 | 0.00 | 0.00 | 0.00 | 87 | 1061.8 |
| 20260906105039 | 22 | 144 | 0.0 | 0.0 | 0.00 | 0.00 | 0.00 | 87 | 1061.9 |
| 20260906104537 | 22 | 144 | 0.0 | 0.0 | 0.00 | 0.00 | 0.00 | 86 | 1061.9 |
| 20260906104032 | 22 | 133 | 0.0 | 0.0 | 0.00 | 0.00 | 0.00 | 86 | 1062.1 |
| 20260906103530 | 22 | 149 | 0.0 | 0.0 | 0.00 | 0.00 | 0.00 | 86 | 1062.0 |
| 20260906103026 | 22 | 174 | 0.0 | 0.0 | 0.00 | 0.00 | 0.00 | 85 | 1061.9 |
| 20260906102526 | 23 | 170 | 0.0 | 0.0 | 0.00 | 0.00 | 0.00 | 84 | 1062.1 |
| 20260906102021 | 23 | 132 | 0.0 | 0.0 | 0.00 | 0.00 | 0.00 | 85 | 1061.9 |
| 20260906101521 | 23 | 168 | 0.0 | 0.0 | 0.00 | 0.00 | 0.00 | 85 | 1062.0 |
| 20260906101016 | 23 | 142 | 0.0 | 0.0 | 0.00 | 0.00 | 0.00 | 84 | 1061.9 |
| 20260906100511 | 23 | 133 | 0.0 | 0.0 | 0.00 | 0.00 | 0.00 | 84 | 1061.9 |
| 20260906100006 | 23 | 150 | 0.0 | 0.0 | 0.00 | 0.00 | 0.00 | 83 | 1061.8 |
| 20260906095501 | 23 | 142 | 0.0 | 0.0 | 0.00 | 0.00 | 0.00 | 83 | 1061.7 |
| 20260906094956 | 23 | 170 | 0.0 | 0.0 | 0.00 | 0.00 | 0.00 | 81 | 1061.9 |
| 20260906094455 | 24 | 134 | 0.0 | 0.0 | 0.00 | 0.00 | 0.00 | 81 | 1062.0 |
| 20260906093951 | 24 | 145 | 0.0 | 0.0 | 0.00 | 0.00 | 0.00 | 81 | 1061.8 |
| 20260906093447 | 24 | 137 | 1.6 | 1.6 | 0.00 | 0.00 | 0.00 | 82 | 1061.9 |
| 20260906092947 | 24 | 283 | 1.6 | 1.6 | 0.00 | 0.00 | 0.00 | 81 | 1062.1 |
| 20260906092447 | 24 | 89 | 3.2 | 3.2 | 0.00 | 0.00 | 0.00 | 81 | 1061.9 |
| 20260906091942 | 24 | 112 | 0.0 | 1.6 | 0.00 | 0.00 | 0.00 | 81 | 1061.7 |
| 20260906091438 | 24 | 117 | 0.0 | 1.6 | 0.00 | 0.00 | 0.00 | 80 | 1061.8 |
| 20260906090935 | 24 | 101 | 0.0 | 1.6 | 0.00 | 0.00 | 0.00 | 80 | 1061.7 |
| 20260906090430 | 24 | 84 | 1.6 | 1.6 | 0.00 | 0.00 | 0.00 | 80 | 1061.8 |
| 20260906085930 | 24 | 97 | 0.0 | 1.6 | 0.00 | 0.00 | 0.00 | 80 | 1061.6 |
| 20260906085429 | 24 | 117 | 0.0 | 1.6 | 0.00 | 0.00 | 0.00 | 80 | 1061.7 |
| 20260906084928 | 24 | 91 | 1.6 | 1.6 | 0.00 | 0.00 | 0.00 | 79 | 1061.8 |
| 20260906084423 | 24 | 137 | 0.0 | 3.2 | 0.00 | 0.00 | 0.00 | 79 | 1061.5 |
| 20260906083922 | 24 | 149 | 0.0 | 0.0 | 0.00 | 0.00 | 0.00 | 79 | 1061.7 |
| 20260906083418 | 24 | 134 | 0.0 | 0.0 | 0.00 | 0.00 | 0.00 | 79 | 1061.7 |
| 20260906082917 | 25 | 137 | 0.0 | 0.0 | 0.00 | 0.00 | 0.00 | 79 | 1061.4 |
| 20260906082413 | 25 | 131 | 0.0 | 0.0 | 0.00 | 0.00 | 0.00 | 78 | 1061.5 |
| 20260906081909 | 25 | 138 | 0.0 | 0.0 | 0.00 | 0.00 | 0.00 | 78 | 1061.5 |
| 20260906081404 | 25 | 159 | 0.0 | 0.0 | 0.00 | 0.00 | 0.00 | 78 | 1061.7 |
| 20260906080900 | 25 | 178 | 0.0 | 1.6 | 0.00 | 0.00 | 0.00 | 78 | 1061.7 |
| 20260906080356 | 25 | 191 | 1.6 | 1.6 | 0.00 | 0.00 | 0.00 | 78 | 1061.7 |
| 20260906075855 | 25 | 177 | 0.0 | 0.0 | 0.00 | 0.00 | 0.00 | 78 | 1061.7 |
| 20260906075350 | 25 | 148 | 0.0 | 1.6 | 0.00 | 0.00 | 0.00 | 77 | 1061.7 |
| 20260906074846 | 25 | 166 | 0.0 | 3.2 | 0.00 | 0.00 | 0.00 | 77 | 1061.9 |
| 20260906074345 | 25 | 147 | 0.0 | 1.6 | 0.00 | 0.00 | 0.00 | 77 | 1061.7 |
| 20260906073844 | 25 | 153 | 0.0 | 0.0 | 0.00 | 0.00 | 0.00 | 76 | 1061.6 |
| 20260906073339 | 25 | 134 | 0.0 | 1.6 | 0.00 | 0.00 | 0.00 | 76 | 1061.9 |
| 20260906072836 | 25 | 173 | 0.0 | 1.6 | 0.00 | 0.00 | 0.00 | 76 | 1061.8 |
| 20260906072331 | 25 | 180 | 0.0 | 1.6 | 0.00 | 0.00 | 0.00 | 76 | 1061.6 |
| 20260906071827 | 25 | 154 | 1.6 | 1.6 | 0.00 | 0.00 | 0.00 | 75 | 1061.9 |
| 20260906071327 | 25 | 167 | 0.0 | 1.6 | 0.00 | 0.00 | 0.00 | 75 | 1061.9 |
| 20260906070824 | 25 | 121 | 1.6 | 3.2 | 0.00 | 0.00 | 0.00 | 75 | 1062.0 |
| 20260906070319 | 25 | 190 | 1.6 | 1.6 | 0.00 | 0.00 | 0.00 | 74 | 1061.9 |
| 20260906065820 | 26 | 164 | 0.0 | 3.2 | 0.00 | 0.00 | 0.00 | 74 | 1062.0 |
| 20260906065315 | 26 | 150 | 1.6 | 3.2 | 0.00 | 0.00 | 0.00 | 73 | 1062.0 |
| 20260906064811 | 26 | 125 | 0.0 | 3.2 | 0.00 | 0.00 | 0.00 | 73 | 1062.1 |
| 20260906064307 | 26 | 122 | 1.6 | 1.6 | 0.00 | 0.00 | 0.00 | 72 | 1062.3 |
| 20260906063807 | 26 | 165 | 0.0 | 3.2 | 0.00 | 0.00 | 0.00 | 72 | 1062.4 |
| 20260906063302 | 26 | 170 | 0.0 | 3.2 | 0.00 | 0.00 | 0.00 | 72 | 1062.5 |
| 20260906062757 | 26 | 102 | 0.0 | 3.2 | 0.00 | 0.00 | 0.00 | 71 | 1062.4 |
| 20260906062256 | 26 | 158 | 3.2 | 9.7 | 0.00 | 0.00 | 0.00 | 71 | 1062.3 |
| 20260906061752 | 26 | 163 | 4.8 | 6.4 | 0.00 | 0.00 | 0.00 | 71 | 1062.5 |
| 20260906061248 | 26 | 189 | 0.0 | 4.8 | 0.00 | 0.00 | 0.00 | 70 | 1062.5 |
| 20260906060743 | 26 | 183 | 1.6 | 3.2 | 0.00 | 0.00 | 0.00 | 70 | 1062.7 |
| 20260906060241 | 26 | 130 | 3.2 | 3.2 | 0.00 | 0.00 | 0.00 | 69 | 1062.5 |
| 20260906055736 | 26 | 107 | 3.2 | 9.7 | 0.00 | 0.00 | 0.00 | 69 | 1062.5 |
| 20260906055231 | 27 | 152 | 1.6 | 6.4 | 0.00 | 0.00 | 0.00 | 69 | 1062.6 |
| 20260906054727 | 27 | 113 | 3.2 | 4.8 | 0.00 | 0.00 | 0.00 | 68 | 1062.6 |
| 20260906054222 | 27 | 131 | 1.6 | 3.2 | 0.00 | 0.00 | 0.00 | 68 | 1062.4 |
| 20260906053718 | 27 | 181 | 0.0 | 3.2 | 0.00 | 0.00 | 0.00 | 68 | 1062.5 |
| 20260906053214 | 27 | 127 | 3.2 | 3.2 | 0.00 | 0.00 | 0.00 | 68 | 1062.5 |
| 20260906052708 | 27 | 211 | 1.6 | 4.8 | 0.00 | 0.00 | 0.00 | 68 | 1062.4 |
| 20260906052205 | 27 | 135 | 1.6 | 3.2 | 0.00 | 0.00 | 0.00 | 68 | 1062.5 |
| 20260906051702 | 27 | 165 | 1.6 | 3.2 | 0.00 | 0.00 | 0.00 | 67 | 1062.5 |
| 20260906051201 | 27 | 139 | 0.0 | 6.4 | 0.00 | 0.00 | 0.00 | 67 | 1062.5 |
| 20260906050656 | 27 | 120 | 1.6 | 3.2 | 0.00 | 0.00 | 0.00 | 67 | 1062.6 |
| 20260906050151 | 27 | 114 | 1.6 | 4.8 | 0.00 | 0.00 | 0.00 | 67 | 1062.5 |
| 20260906045650 | 27 | 124 | 3.2 | 4.8 | 0.00 | 0.00 | 0.00 | 67 | 1062.5 |
| 20260906045145 | 27 | 125 | 1.6 | 4.8 | 0.00 | 0.00 | 0.00 | 67 | 1062.7 |
| 20260906044641 | 27 | 134 | 3.2 | 3.2 | 0.00 | 0.00 | 0.00 | 67 | 1062.4 |
| 20260906044136 | 27 | 158 | 3.2 | 9.7 | 0.00 | 0.00 | 0.00 | 67 | 1062.7 |
| 20260906043632 | 28 | 167 | 0.0 | 1.6 | 0.00 | 0.00 | 0.00 | 67 | 1062.4 |
| 20260906043127 | 28 | 152 | 0.0 | 4.8 | 0.00 | 0.00 | 0.00 | 67 | 1062.5 |
| 20260906042627 | 28 | 158 | 0.0 | 3.2 | 0.00 | 0.00 | 0.00 | 66 | 1062.4 |
| 20260906042121 | 28 | 169 | 1.6 | 4.8 | 0.00 | 0.00 | 0.00 | 66 | 1062.3 |
| 20260906041618 | 28 | 194 | 4.8 | 6.4 | 0.00 | 0.00 | 0.00 | 66 | 1062.4 |
| 20260906041117 | 28 | 158 | 0.0 | 3.2 | 0.00 | 0.00 | 0.00 | 66 | 1062.4 |
| 20260906040613 | 28 | 161 | 1.6 | 4.8 | 0.00 | 0.00 | 0.00 | 66 | 1062.4 |
| 20260906040109 | 28 | 169 | 0.0 | 3.2 | 0.00 | 0.00 | 0.00 | 65 | 1062.4 |
| 20260906035603 | 28 | 128 | 1.6 | 4.8 | 0.00 | 0.00 | 0.00 | 65 | 1062.3 |
| 20260906035059 | 28 | 139 | 0.0 | 9.7 | 0.00 | 0.00 | 0.00 | 65 | 1062.1 |
| 20260906034559 | 28 | 85 | 4.8 | 4.8 | 0.00 | 0.00 | 0.00 | 64 | 1062.1 |
| 20260906034054 | 28 | 154 | 1.6 | 4.8 | 0.00 | 0.00 | 0.00 | 64 | 1062.0 |
| 20260906033549 | 29 | 88 | 4.8 | 11.3 | 0.00 | 0.00 | 0.00 | 63 | 1062.2 |
| 20260906033045 | 29 | 113 | 6.4 | 9.7 | 0.00 | 0.00 | 0.00 | 63 | 1062.1 |
| 20260906032541 | 29 | 104 | 6.4 | 12.9 | 0.00 | 0.00 | 0.00 | 62 | 1062.2 |
| 20260906032036 | 29 | 146 | 3.2 | 6.4 | 0.00 | 0.00 | 0.00 | 61 | 1062.0 |
| 20260906031532 | 29 | 198 | 6.4 | 9.7 | 0.00 | 0.00 | 0.00 | 61 | 1062.0 |
| 20260906031027 | 29 | 156 | 3.2 | 4.8 | 0.00 | 0.00 | 0.00 | 61 | 1061.8 |
| 20260906030526 | 29 | 145 | 4.8 | 9.7 | 0.00 | 0.00 | 0.00 | 60 | 1061.7 |
| 20260906030026 | 29 | 131 | 1.6 | 9.7 | 0.00 | 0.00 | 0.00 | 59 | 1061.8 |
| 20260906025526 | 29 | 93 | 1.6 | 6.4 | 0.00 | 0.00 | 0.00 | 58 | 1061.7 |
| 20260906025024 | 29 | 136 | 4.8 | 9.7 | 0.00 | 0.00 | 0.00 | 57 | 1061.9 |
| 20260906024519 | 29 | 137 | 3.2 | 6.4 | 0.00 | 0.00 | 0.00 | 56 | 1061.7 |
| 20260906024019 | 28 | 144 | 1.6 | 6.4 | 0.00 | 0.00 | 0.00 | 56 | 1061.6 |
| 20260906023515 | 29 | 133 | 0.0 | 1.6 | 0.00 | 0.00 | 0.00 | 55 | 1061.3 |
| 20260906023010 | 29 | 137 | 0.0 | 0.0 | 0.00 | 0.00 | 0.00 | 55 | 1061.1 |
| 20260906022506 | 29 | 128 | 0.0 | 3.2 | 0.00 | 0.00 | 0.00 | 54 | 1061.2 |
| 20260906022001 | 29 | 136 | 0.0 | 3.2 | 0.00 | 0.00 | 0.00 | 54 | 1061.2 |
| 20260906021456 | 30 | 123 | 1.6 | 3.2 | 0.00 | 0.00 | 0.00 | 53 | 1061.0 |
| 20260906020950 | 30 | 102 | 0.0 | 1.6 | 0.00 | 0.00 | 0.00 | 53 | 1061.0 |
| 20260906020444 | 30 | 90 | 1.6 | 3.2 | 0.00 | 0.00 | 0.00 | 53 | 1060.9 |
| 20260906015944 | 30 | 95 | 1.6 | 1.6 | 0.00 | 0.00 | 0.00 | 52 | 1060.7 |
| 20260906015443 | 30 | 142 | 0.0 | 1.6 | 0.00 | 0.00 | 0.00 | 52 | 1060.8 |
| 20260906014943 | 30 | 148 | 0.0 | 4.8 | 0.00 | 0.00 | 0.00 | 52 | 1060.7 |
| 20260906014438 | 30 | 99 | 3.2 | 3.2 | 0.00 | 0.00 | 0.00 | 51 | 1060.6 |
| 20260906013934 | 30 | 76 | 3.2 | 4.8 | 0.00 | 0.00 | 0.00 | 51 | 1060.4 |
| 20260906013429 | 30 | 132 | 0.0 | 0.0 | 0.00 | 0.00 | 0.00 | 51 | 1060.6 |
| 20260906012925 | 30 | 133 | 0.0 | 0.0 | 0.00 | 0.00 | 0.00 | 50 | 1060.4 |
| 20260906012425 | 31 | 115 | 0.0 | 1.6 | 0.00 | 0.00 | 0.00 | 49 | 1060.2 |
| 20260906011924 | 31 | 124 | 0.0 | 0.0 | 0.00 | 0.00 | 0.00 | 49 | 1060.4 |
| 20260906011420 | 31 | 149 | 0.0 | 1.6 | 0.00 | 0.00 | 0.00 | 48 | 1060.3 |
| 20260906010915 | 32 | 142 | 0.0 | 1.6 | 0.00 | 0.00 | 0.00 | 47 | 1060.3 |
| 20260906010410 | 32 | 141 | 0.0 | 1.6 | 0.00 | 0.00 | 0.00 | 46 | 1060.3 |
| 20260906005906 | 32 | 144 | 0.0 | 1.6 | 0.00 | 0.00 | 0.00 | 46 | 1060.3 |
| 20260906005406 | 32 | 160 | 0.0 | 1.6 | 0.00 | 0.00 | 0.00 | 45 | 1060.4 |
| 20260906004905 | 33 | 144 | 1.6 | 1.6 | 0.00 | 0.00 | 0.00 | 45 | 1060.2 |
| 20260906004404 | 33 | 167 | 0.0 | 4.8 | 0.00 | 0.00 | 0.00 | 44 | 1059.9 |
| 20260906003900 | 33 | 99 | 3.2 | 4.8 | 0.00 | 0.00 | 0.00 | 44 | 1060.0 |
| 20260906003356 | 33 | 78 | 3.2 | 4.8 | 0.00 | 0.00 | 0.00 | 43 | 1059.9 |
| 20260906002851 | 34 | 131 | 1.6 | 4.8 | 0.00 | 0.00 | 0.00 | 43 | 1059.8 |
| 20260906002350 | 35 | 155 | 3.2 | 6.4 | 0.00 | 0.00 | 0.00 | 42 | 1059.8 |
| 20260906001846 | 35 | 130 | 3.2 | 4.8 | 0.00 | 0.00 | 0.00 | 41 | 1059.9 |
| 20260906001341 | 35 | 123 | 4.8 | 11.3 | 0.00 | 0.00 | 0.00 | 41 | 1059.9 |
| 20260906000836 | 35 | 80 | 3.2 | 4.8 | 0.00 | 0.00 | 0.00 | 40 | 1060.2 |
| 20260906000336 | 36 | 245 | 0.0 | 3.2 | 0.00 | 0.00 | 0.00 | 40 | 1059.9 |
| 20260905235836 | 35 | 160 | 3.2 | 3.2 | 0.00 | 0.00 | 0.00 | 40 | 1060.0 |
| 20260905235331 | 35 | 92 | 3.2 | 4.8 | 0.00 | 0.00 | 0.00 | 40 | 1060.0 |
| 20260905234826 | 36 | 140 | 3.2 | 6.4 | 0.00 | 0.00 | 0.00 | 39 | 1059.8 |
| 20260905234322 | 36 | 167 | 1.6 | 6.4 | 0.00 | 0.00 | 0.00 | 39 | 1059.9 |
| 20260905233816 | 36 | 175 | 3.2 | 4.8 | 0.00 | 0.00 | 0.00 | 39 | 1059.6 |
| 20260905233312 | 36 | 196 | 3.2 | 6.4 | 0.00 | 0.00 | 0.00 | 38 | 1059.7 |
| 20260905232811 | 36 | 155 | 1.6 | 6.4 | 0.00 | 0.00 | 0.00 | 39 | 1059.9 |
| 20260905232307 | 37 | 173 | 4.8 | 11.3 | 0.00 | 0.00 | 0.00 | 38 | 1060.2 |
| 20260905231802 | 37 | 152 | 3.2 | 4.8 | 0.00 | 0.00 | 0.00 | 37 | 1059.8 |
| 20260905231257 | 37 | 148 | 1.6 | 3.2 | 0.00 | 0.00 | 0.00 | 37 | 1059.5 |
| 20260905230754 | 37 | 190 | 1.6 | 3.2 | 0.00 | 0.00 | 0.00 | 38 | 1059.8 |
| 20260905230251 | 37 | 207 | 3.2 | 6.4 | 0.00 | 0.00 | 0.00 | 38 | 1059.6 |
| 20260905225751 | 36 | 181 | 1.6 | 4.8 | 0.00 | 0.00 | 0.00 | 38 | 1059.9 |
| 20260905225246 | 36 | 209 | 1.6 | 3.2 | 0.00 | 0.00 | 0.00 | 38 | 1059.7 |